Time;durP1;ratioP1;P1;durP2;ratioP2;P2;SDS_P1;SDS_P2;PMS_P1;PMS_P2;Temp;Humidity;BMP_temperature;BMP_pressure;BME280_temperature;BME280_humidity;BME280_pressure;Samples;Min_cycle;Max_cycle;Signal;HPM_P1;HPM_P2
2021/10/22 00:01:39;;;;;;;;;;;;;;;11.63;48.56;97584.78;1757147;80;20680;-81
2021/10/22 00:04:05;;;;;;;;;;;;;;;11.63;48.59;97583.47;1775352;80;20906;-81
2021/10/22 00:06:31;;;;;;;;;;;;;;;11.66;48.59;97579.28;1839669;77;20949;-81
2021/10/22 00:08:57;;;;;;;;;;;;;;;11.67;48.59;97584.85;1793158;79;24393;-81
2021/10/22 00:11:23;;;;;;;;;;;;;;;11.71;48.63;97586.74;1753071;79;20907;-81
2021/10/22 00:13:49;;;;;;;;;;;;;;;11.71;48.67;97585.43;1785092;79;20342;-81
2021/10/22 00:16:16;;;;;;;;;;;;;;;11.73;48.69;97595.31;1830598;76;20303;-81
2021/10/22 00:18:43;;;;;;;;;;;;;;;11.74;48.70;97589.94;1779558;79;25996;-81
2021/10/22 00:21:10;;;;;;;;;;;;;;;11.77;48.73;97594.58;1766633;79;24767;-81
2021/10/22 00:23:36;;;;;;;;;;;;;;;11.77;48.78;97587.55;1727446;80;20294;-81
2021/10/22 00:26:02;;;;;;;;;;;;;;;11.76;48.80;97587.20;1769069;79;24801;-81
2021/10/22 00:28:28;;;;;;;;;;;;;;;11.76;48.81;97598.99;1774634;80;21977;-81
2021/10/22 00:30:56;;;;;;;;;;;;;;;11.76;48.83;97603.41;1807925;78;26027;-81
2021/10/22 00:33:22;;;;;;;;;;;;;;;11.74;48.86;97590.42;1782871;79;24456;-81
2021/10/22 00:35:49;;;;;;;;;;;;;;;11.75;48.91;97592.09;1765206;80;20248;-81
2021/10/22 00:38:15;;;;;;;;;;;;;;;11.77;48.96;97588.86;1816199;78;24769;-81
2021/10/22 00:40:41;;;;;;;;;;;;;;;11.80;48.97;97592.98;1774338;79;21806;-81
2021/10/22 00:43:07;;;;;;;;;;;;;;;11.82;49.02;97598.94;1762801;80;20972;-81
2021/10/22 00:45:33;;;;;;;;;;;;;;;11.83;49.04;97598.81;1746645;80;24428;-81
2021/10/22 00:47:59;;;;;;;;;;;;;;;11.84;49.08;97595.70;1787789;78;20247;-81
2021/10/22 00:50:25;;;;;;;;;;;;;;;11.86;49.13;97595.07;1786753;78;20727;-81
2021/10/22 00:52:51;;;;;;;;;;;;;;;11.87;49.17;97589.70;1784957;78;21919;-81
2021/10/22 00:55:17;;;;;;;;;;;;;;;11.90;49.20;97588.58;1788263;78;26041;-81
2021/10/22 00:57:43;;;;;;;;;;;;;;;11.91;49.25;97583.21;1783647;78;24431;-81
2021/10/22 01:00:10;;;;;;;;;;;;;;;11.92;49.32;97586.19;1768199;78;20244;-81
2021/10/22 01:02:36;;;;;;;;;;;;;;;11.91;49.36;97595.48;1781998;78;24821;-81
2021/10/22 01:05:08;;;;;;;;;;;;;;;11.88;49.35;97594.47;1784179;78;21974;-80
2021/10/22 01:07:31;;;;;;;;;;;;;;;11.94;49.41;97594.75;1782947;78;26004;-81
2021/10/22 01:09:57;;;;;;;;;;;;;;;11.94;49.42;97603.10;1782905;78;24408;-80
2021/10/22 01:12:23;;;;;;;;;;;;;;;11.94;49.49;97602.63;1793055;78;20793;-81
2021/10/22 01:14:51;;;;;;;;;;;;;;;11.95;49.52;97602.11;1780685;78;20243;-80
2021/10/22 01:17:30;;;;;;;;;;;;;;;11.96;49.57;97594.12;1787649;78;22224;-81
2021/10/22 01:19:56;;;;;;;;;;;;;;;11.96;49.62;97591.97;1794153;79;26028;-81
2021/10/22 01:22:22;;;;;;;;;;;;;;;11.94;49.64;97589.52;1775054;79;21001;-81
2021/10/22 01:24:49;;;;;;;;;;;;;;;11.94;49.67;97604.41;1759763;80;20206;-81
2021/10/22 01:27:16;;;;;;;;;;;;;;;11.90;49.71;97599.90;1785404;79;24230;-81
2021/10/22 01:29:42;;;;;;;;;;;;;;;11.86;49.74;97586.73;1760055;81;22029;-81
2021/10/22 01:32:09;;;;;;;;;;;;;;;11.85;49.78;97577.67;1753151;81;25978;-81
2021/10/22 01:34:35;;;;;;;;;;;;;;;11.81;49.81;97586.30;1754108;81;24416;-81
2021/10/22 01:37:01;;;;;;;;;;;;;;;11.78;49.86;97572.17;1764626;80;20256;-80
2021/10/22 01:39:27;;;;;;;;;;;;;;;11.76;49.92;97580.64;1783178;78;20344;-81
2021/10/22 01:41:53;;;;;;;;;;;;;;;11.75;49.97;97590.77;1790475;78;20298;-81
2021/10/22 01:44:23;;;;;;;;;;;;;;;11.75;50.02;97603.88;1785277;78;26011;-81
2021/10/22 01:46:47;;;;;;;;;;;;;;;11.76;50.09;97613.41;1777815;78;25122;-81
2021/10/22 01:49:13;;;;;;;;;;;;;;;11.76;50.16;97623.06;1779281;78;20302;-81
2021/10/22 01:51:40;;;;;;;;;;;;;;;11.74;50.21;97624.02;1759295;78;24698;-81
2021/10/22 01:54:06;;;;;;;;;;;;;;;11.73;50.28;97620.21;1787805;78;22051;-81
2021/10/22 01:56:32;;;;;;;;;;;;;;;11.74;50.36;97621.40;1782222;78;26038;-81
2021/10/22 01:58:59;;;;;;;;;;;;;;;11.76;50.39;97625.69;1790159;78;20262;-80
2021/10/22 02:01:26;;;;;;;;;;;;;;;11.76;50.45;97628.30;1797980;79;20214;-81
2021/10/22 02:03:53;;;;;;;;;;;;;;;11.77;50.50;97630.80;1796026;79;25071;-81
2021/10/22 02:06:19;;;;;;;;;;;;;;;11.78;50.55;97635.09;1765759;80;22059;-80
2021/10/22 02:08:45;;;;;;;;;;;;;;;11.79;50.61;97638.51;1773933;79;21119;-80
2021/10/22 02:11:11;;;;;;;;;;;;;;;11.79;50.67;97625.40;1749604;80;20827;-81
2021/10/22 02:13:37;;;;;;;;;;;;;;;11.78;50.74;97631.16;1773994;79;20666;-81
2021/10/22 02:16:04;;;;;;;;;;;;;;;11.77;50.79;97629.48;1786342;78;24841;-81
2021/10/22 02:18:31;;;;;;;;;;;;;;;11.76;50.82;97625.20;1781450;78;21711;-81
2021/10/22 02:20:57;;;;;;;;;;;;;;;11.74;50.90;97620.56;1777175;79;26029;-81
2021/10/22 02:23:23;;;;;;;;;;;;;;;11.73;50.93;97628.08;1745574;79;20914;-80
2021/10/22 02:25:49;;;;;;;;;;;;;;;11.72;50.98;97639.52;1781008;78;20141;-81
2021/10/22 02:28:15;;;;;;;;;;;;;;;11.70;51.04;97642.73;1778021;78;24807;-80
2021/10/22 02:30:42;;;;;;;;;;;;;;;11.68;51.08;97648.59;1779421;78;22017;-81
2021/10/22 02:33:08;;;;;;;;;;;;;;;11.66;51.12;97651.84;1788209;78;26060;-81
2021/10/22 02:35:35;;;;;;;;;;;;;;;11.63;51.17;97656.02;1778340;79;24509;-81
2021/10/22 02:38:01;;;;;;;;;;;;;;;11.61;51.25;97656.66;1812861;78;20209;-81
2021/10/22 02:40:27;;;;;;;;;;;;;;;11.57;51.27;97655.23;1772521;79;24779;-80
2021/10/22 02:42:53;;;;;;;;;;;;;;;11.53;51.33;97652.06;1756381;81;20887;-81
2021/10/22 02:45:19;;;;;;;;;;;;;;;11.49;51.37;97661.63;1770706;80;20956;-81
2021/10/22 02:47:45;;;;;;;;;;;;;;;11.43;51.43;97655.13;1758847;79;24498;-81
2021/10/22 02:50:11;;;;;;;;;;;;;;;11.40;51.50;97651.44;1771918;80;20333;-80
2021/10/22 02:52:37;;;;;;;;;;;;;;;11.37;51.58;97656.95;1772797;80;20236;-80
2021/10/22 02:55:04;;;;;;;;;;;;;;;11.32;51.65;97663.07;1773936;80;20933;-80
2021/10/22 02:57:30;;;;;;;;;;;;;;;11.27;51.71;97667.39;1769408;80;26037;-80
2021/10/22 02:59:56;;;;;;;;;;;;;;;11.25;51.79;97679.78;1775961;80;20247;-80
2021/10/22 03:02:22;;;;;;;;;;;;;;;11.21;51.87;97681.00;1774072;79;20803;-80
2021/10/22 03:04:48;;;;;;;;;;;;;;;11.17;51.94;97700.56;1775105;80;24781;-80
2021/10/22 03:07:14;;;;;;;;;;;;;;;11.11;52.00;97700.23;1771551;79;22196;-81
2021/10/22 03:09:40;;;;;;;;;;;;;;;11.11;52.08;97699.77;1760658;80;26019;-81
2021/10/22 03:12:06;;;;;;;;;;;;;;;11.08;52.15;97700.48;1806883;78;24442;-81
2021/10/22 03:14:32;;;;;;;;;;;;;;;11.05;52.24;97700.27;1810623;78;20893;-81
2021/10/22 03:16:58;;;;;;;;;;;;;;;11.04;52.32;97703.01;1805136;78;24754;-81
2021/10/22 03:19:24;;;;;;;;;;;;;;;11.01;52.41;97706.73;1809716;78;20796;-81
2021/10/22 03:21:50;;;;;;;;;;;;;;;10.96;52.50;97701.05;1811102;78;25999;-81
2021/10/22 03:24:21;;;;;;;;;;;;;;;10.91;52.60;97706.64;1805519;78;24563;-81
2021/10/22 03:26:44;;;;;;;;;;;;;;;10.88;52.69;97712.14;1798019;78;20306;-81
2021/10/22 03:29:10;;;;;;;;;;;;;;;10.83;52.79;97711.69;1794870;79;20234;-81
2021/10/22 03:31:36;;;;;;;;;;;;;;;10.78;52.88;97707.79;1790485;79;21983;-81
2021/10/22 03:34:02;;;;;;;;;;;;;;;10.74;52.97;97710.31;1796692;79;21091;-81
2021/10/22 03:36:29;;;;;;;;;;;;;;;10.69;53.09;97704.63;1743578;82;20795;-81
2021/10/22 03:38:55;;;;;;;;;;;;;;;10.65;53.18;97726.27;1761130;81;20208;-81
2021/10/22 03:41:21;;;;;;;;;;;;;;;10.63;53.30;97732.60;1755156;81;24759;-81
2021/10/22 03:43:47;;;;;;;;;;;;;;;10.57;53.40;97735.23;1733650;81;20276;-80
2021/10/22 03:46:13;;;;;;;;;;;;;;;10.53;53.51;97738.23;1749306;81;26754;-81
2021/10/22 03:48:39;;;;;;;;;;;;;;;10.49;53.61;97744.17;1760520;81;20306;-81
2021/10/22 03:51:05;;;;;;;;;;;;;;;10.46;53.71;97750.49;1754026;81;20308;-81
2021/10/22 03:53:31;;;;;;;;;;;;;;;10.44;53.79;97751.55;1757238;81;20796;-81
2021/10/22 03:55:57;;;;;;;;;;;;;;;10.41;53.87;97757.88;1754905;81;22043;-81
2021/10/22 03:58:23;;;;;;;;;;;;;;;10.38;53.92;97752.87;1752570;80;21185;-81
2021/10/22 04:00:48;;;;;;;;;;;;;;;10.33;53.97;97753.72;1755901;81;20252;-80
2021/10/22 04:03:15;;;;;;;;;;;;;;;10.31;54.00;97760.05;1758656;81;20846;-81
2021/10/22 04:05:43;;;;;;;;;;;;;;;10.28;54.05;97753.26;1763450;81;24769;-80
2021/10/22 04:08:11;;;;;;;;;;;;;;;10.22;54.09;97762.89;1759870;81;35899;-81
2021/10/22 04:10:40;;;;;;;;;;;;;;;10.21;54.13;97757.77;1759355;81;25980;-81
2021/10/22 04:13:05;;;;;;;;;;;;;;;10.16;54.17;97758.14;1765021;80;24125;-81
2021/10/22 04:15:31;;;;;;;;;;;;;;;10.11;54.19;97761.56;1753851;81;20225;-81
2021/10/22 04:17:57;;;;;;;;;;;;;;;10.08;54.22;97761.83;1751803;81;24764;-81
2021/10/22 04:20:23;;;;;;;;;;;;;;;10.04;54.25;97764.30;1753912;81;20331;-81
2021/10/22 04:22:51;;;;;;;;;;;;;;;10.01;54.27;97773.70;1751408;80;26229;-81
2021/10/22 04:25:17;;;;;;;;;;;;;;;9.98;54.33;97773.95;1778373;79;24704;-81
2021/10/22 04:27:43;;;;;;;;;;;;;;;9.95;54.37;97775.01;1765773;80;20238;-81
2021/10/22 04:30:10;;;;;;;;;;;;;;;9.93;54.42;97770.84;1756725;80;20826;-81
2021/10/22 04:32:37;;;;;;;;;;;;;;;9.90;54.46;97772.39;1761544;80;23563;-81
2021/10/22 04:35:03;;;;;;;;;;;;;;;9.87;54.53;97777.88;1758413;79;26134;-81
2021/10/22 04:37:47;;;;;;;;;;;;;;;9.82;54.62;97782.63;1767190;79;24481;-81
2021/10/22 04:42:48;;;;;;;;;;;;;;;9.74;54.77;97787.12;1733972;80;24695;-81
2021/10/22 04:45:15;;;;;;;;;;;;;;;9.70;54.84;97784.87;1755891;80;22835;-81
2021/10/22 04:47:41;;;;;;;;;;;;;;;9.66;54.90;97797.31;1794096;79;26124;-80
2021/10/22 04:50:09;;;;;;;;;;;;;;;9.60;54.95;97802.53;1792226;79;20285;-80
2021/10/22 04:52:36;;;;;;;;;;;;;;;9.57;55.05;97804.55;1761059;80;20206;-81
2021/10/22 04:55:02;;;;;;;;;;;;;;;9.54;55.10;97809.55;1763834;80;24751;-81
2021/10/22 04:57:28;;;;;;;;;;;;;;;9.52;55.17;97811.44;1813928;78;21998;-81
2021/10/22 04:59:55;;;;;;;;;;;;;;;9.48;55.21;97808.70;1816591;78;27519;-80
2021/10/22 05:02:21;;;;;;;;;;;;;;;9.45;55.22;97819.84;1807466;78;24519;-80
2021/10/22 05:04:48;;;;;;;;;;;;;;;9.41;55.25;97819.72;1820443;78;20802;-81
2021/10/22 05:07:14;;;;;;;;;;;;;;;9.39;55.25;97819.82;1811358;78;24748;-80
2021/10/22 05:09:40;;;;;;;;;;;;;;;9.37;55.26;97822.20;1813124;78;20836;-81
2021/10/22 05:12:06;;;;;;;;;;;;;;;9.34;55.27;97820.64;1816559;78;21610;-80
2021/10/22 05:14:33;;;;;;;;;;;;;;;9.30;55.26;97817.07;1813420;78;24414;-81
2021/10/22 05:16:59;;;;;;;;;;;;;;;9.24;55.27;97818.36;1800614;78;20434;-81
2021/10/22 05:19:27;;;;;;;;;;;;;;;9.19;55.25;97821.78;1812096;78;24737;-81
2021/10/22 05:21:53;;;;;;;;;;;;;;;9.15;55.27;97822.97;1805863;78;22030;-81
2021/10/22 05:24:19;;;;;;;;;;;;;;;9.09;55.29;97828.16;1780870;79;26011;-81
2021/10/22 05:26:45;;;;;;;;;;;;;;;9.05;55.32;97830.65;1752343;81;24426;-81
2021/10/22 05:29:11;;;;;;;;;;;;;;;9.00;55.35;97834.53;1755617;80;20336;-82
2021/10/22 05:31:37;;;;;;;;;;;;;;;8.98;55.41;97834.64;1760491;79;20799;-82
2021/10/22 05:34:03;;;;;;;;;;;;;;;8.96;55.47;97826.08;1805397;78;20902;-81
2021/10/22 05:36:29;;;;;;;;;;;;;;;8.88;55.53;97818.46;1803504;78;25981;-81
2021/10/22 05:38:55;;;;;;;;;;;;;;;8.93;55.63;97835.92;1795520;78;24483;-82
2021/10/22 05:41:21;;;;;;;;;;;;;;;8.94;55.70;97835.81;1801970;78;20168;-81
2021/10/22 05:43:49;;;;;;;;;;;;;;;8.93;55.80;97839.84;1817696;78;24790;-82
2021/10/22 05:46:21;;;;;;;;;;;;;;;8.91;55.91;97850.84;1815518;78;22849;-82
2021/10/22 05:48:47;;;;;;;;;;;;;;;8.88;56.00;97853.69;1809926;78;27146;-81
2021/10/22 05:51:13;;;;;;;;;;;;;;;8.86;56.12;97866.00;1794820;78;20294;-81
2021/10/22 05:53:42;;;;;;;;;;;;;;;8.82;56.19;97866.70;1784535;78;21088;-81
2021/10/22 05:56:08;;;;;;;;;;;;;;;8.81;56.29;97875.47;1830962;77;20195;-81
2021/10/22 05:58:35;;;;;;;;;;;;;;;8.78;56.38;97875.20;1789686;79;20796;-81
2021/10/22 06:01:02;;;;;;;;;;;;;;;8.76;56.43;97887.54;1799962;78;26847;-81
2021/10/22 06:03:28;;;;;;;;;;;;;;;8.75;56.50;97896.77;1766762;80;24594;-81
2021/10/22 06:05:54;;;;;;;;;;;;;;;8.75;56.55;97893.69;1811419;78;20238;-81
2021/10/22 06:08:21;;;;;;;;;;;;;;;8.69;56.62;97881.08;1766280;79;24755;-81
2021/10/22 06:10:48;;;;;;;;;;;;;;;8.80;56.68;97903.33;1759234;81;22057;-81
2021/10/22 06:13:17;;;;;;;;;;;;;;;8.82;56.75;97900.62;1776722;80;26024;-81
2021/10/22 06:15:44;;;;;;;;;;;;;;;8.83;56.80;97907.52;1769603;80;25174;-81
2021/10/22 06:18:13;;;;;;;;;;;;;;;8.85;56.87;97910.83;1775186;79;20176;-82
2021/10/22 06:20:48;;;;;;;;;;;;;;;8.84;56.89;97914.88;1779960;80;24777;-81
2021/10/22 06:25:41;;;;;;;;;;;;;;;8.81;56.92;97917.21;1770243;80;26013;-81
2021/10/22 06:28:08;;;;;;;;;;;;;;;8.80;56.95;97922.06;1758609;79;24530;-80
2021/10/22 06:30:34;;;;;;;;;;;;;;;8.81;56.99;97920.66;1757685;79;20268;-81
2021/10/22 06:33:00;;;;;;;;;;;;;;;8.82;57.05;97918.88;1750059;80;20869;-80
2021/10/22 06:35:26;;;;;;;;;;;;;;;8.83;57.10;97923.16;1751474;80;22187;-80
2021/10/22 06:37:54;;;;;;;;;;;;;;;8.83;57.17;97924.94;1814870;77;25998;-81
2021/10/22 06:40:21;;;;;;;;;;;;;;;8.81;57.22;97924.57;1815383;78;25391;-81
2021/10/22 06:42:47;;;;;;;;;;;;;;;8.83;57.29;97928.85;1816463;77;20281;-81
2021/10/22 06:45:13;;;;;;;;;;;;;;;8.81;57.34;97932.39;1816371;77;24834;-80
2021/10/22 06:47:40;;;;;;;;;;;;;;;8.80;57.34;97932.50;1816165;77;21975;-80
2021/10/22 06:50:06;;;;;;;;;;;;;;;8.81;57.39;97935.00;1813017;77;26110;-80
2021/10/22 06:52:33;;;;;;;;;;;;;;;8.80;57.42;97932.03;1818921;77;24467;-80
2021/10/22 06:54:59;;;;;;;;;;;;;;;8.83;57.43;97937.98;1820608;77;20172;-80
2021/10/22 06:57:25;;;;;;;;;;;;;;;8.86;57.46;97941.67;1816405;77;24355;-81
2021/10/22 06:59:51;;;;;;;;;;;;;;;8.88;57.48;97934.58;1815040;77;22121;-81
2021/10/22 07:02:17;;;;;;;;;;;;;;;8.89;57.53;97941.47;1818764;77;21029;-81
2021/10/22 07:04:51;;;;;;;;;;;;;;;8.92;57.56;97946.45;1820271;77;25839;-81
2021/10/22 07:07:19;;;;;;;;;;;;;;;8.94;57.61;97949.80;1817822;77;20241;-82
2021/10/22 07:09:46;;;;;;;;;;;;;;;8.96;57.64;97949.20;1818248;78;24814;-82
2021/10/22 07:12:13;;;;;;;;;;;;;;;8.92;57.67;97949.06;1807758;77;22021;-82
2021/10/22 07:14:48;;;;;;;;;;;;;;;8.97;57.71;97966.53;1808433;77;25932;-82
2021/10/22 07:17:07;;;;;;;;;;;;;;;8.99;57.75;97968.11;1814053;77;24482;-81
2021/10/22 07:19:39;;;;;;;;;;;;;;;9.03;57.79;97973.47;1816467;77;20338;-81
2021/10/22 07:22:06;;;;;;;;;;;;;;;9.07;57.88;97972.30;1814410;77;25006;-81
2021/10/22 07:24:32;;;;;;;;;;;;;;;9.11;57.89;97969.82;1810684;77;22006;-81
2021/10/22 07:26:59;;;;;;;;;;;;;;;9.14;57.88;97975.31;1813725;77;26726;-82
2021/10/22 07:29:26;;;;;;;;;;;;;;;9.18;57.80;97972.83;1831095;77;24768;-81
2021/10/22 07:31:52;;;;;;;;;;;;;;;9.18;57.65;97979.36;1839678;77;20208;-81
2021/10/22 07:34:21;;;;;;;;;;;;;;;9.22;57.52;97989.94;1838123;77;20211;-81
2021/10/22 07:36:46;;;;;;;;;;;;;;;9.26;57.38;97983.58;1798876;79;22099;-81
2021/10/22 07:39:13;;;;;;;;;;;;;;;9.31;57.26;97989.30;1763828;79;25993;-81
2021/10/22 07:41:39;;;;;;;;;;;;;;;9.36;57.18;98003.33;1784505;80;24430;-81
2021/10/22 07:44:05;;;;;;;;;;;;;;;9.39;57.08;97996.56;1760790;81;20206;-81
2021/10/22 07:46:31;;;;;;;;;;;;;;;9.44;57.00;97995.77;1773936;79;20680;-81
2021/10/22 07:48:57;;;;;;;;;;;;;;;9.48;56.90;98001.98;1809452;78;22004;-81
2021/10/22 07:51:23;;;;;;;;;;;;;;;9.55;56.80;98009.72;1803428;78;26030;-81
2021/10/22 07:53:49;;;;;;;;;;;;;;;9.62;56.74;98007.03;1810093;78;20891;-81
2021/10/22 07:56:16;;;;;;;;;;;;;;;9.65;56.65;98012.52;1803968;78;20288;-81
2021/10/22 07:58:42;;;;;;;;;;;;;;;9.67;56.52;98014.53;1805290;78;25414;-82
2021/10/22 08:01:08;;;;;;;;;;;;;;;9.70;56.43;98013.02;1800037;78;22781;-81
2021/10/22 08:03:34;;;;;;;;;;;;;;;9.75;56.34;98015.28;1802464;78;25931;-81
2021/10/22 08:06:04;;;;;;;;;;;;;;;9.78;56.26;98005.91;1801750;78;20248;-81
2021/10/22 08:08:30;;;;;;;;;;;;;;;9.83;56.20;98016.85;1806914;78;20489;-81
2021/10/22 08:10:57;;;;;;;;;;;;;;;9.84;56.11;98005.45;1813830;78;20228;-81
2021/10/22 08:13:23;;;;;;;;;;;;;;;9.83;55.97;98009.84;1803203;79;22182;-81
2021/10/22 08:15:49;;;;;;;;;;;;;;;9.87;55.87;98004.74;1796894;78;21094;-81
2021/10/22 08:18:16;;;;;;;;;;;;;;;9.91;55.80;97998.84;1800623;78;24460;-81
2021/10/22 08:20:49;;;;;;;;;;;;;;;9.94;55.80;97994.20;1830691;77;20374;-81
2021/10/22 08:23:13;;;;;;;;;;;;;;;9.99;55.68;98004.31;1798583;79;24868;-81
2021/10/22 08:25:39;;;;;;;;;;;;;;;9.99;55.57;98010.85;1806680;78;20221;-81
2021/10/22 08:28:05;;;;;;;;;;;;;;;10.00;55.47;98008.60;1766318;80;21064;-81
2021/10/22 08:30:31;;;;;;;;;;;;;;;10.01;55.37;98013.73;1805526;78;24440;-81
2021/10/22 08:33:00;;;;;;;;;;;;;;;10.06;55.32;98012.07;1801850;78;20214;-81
2021/10/22 08:35:28;;;;;;;;;;;;;;;10.14;55.32;98008.89;1759069;81;24816;-81
2021/10/22 08:37:54;;;;;;;;;;;;;;;10.18;55.26;98003.34;1804246;78;22038;-81
2021/10/22 08:40:22;;;;;;;;;;;;;;;10.21;55.15;98007.03;1807877;78;26017;-81
2021/10/22 08:42:49;;;;;;;;;;;;;;;10.22;55.02;98007.39;1797350;78;24681;-81
2021/10/22 08:45:15;;;;;;;;;;;;;;;10.25;54.91;98001.95;1766049;79;20212;-81
2021/10/22 08:47:42;;;;;;;;;;;;;;;10.32;54.83;98010.14;1752409;81;24912;-81
2021/10/22 08:50:12;;;;;;;;;;;;;;;10.34;54.76;98013.02;1761636;81;22036;-81
2021/10/22 08:52:40;;;;;;;;;;;;;;;10.36;54.65;98005.06;1780753;78;26227;-81
2021/10/22 08:55:07;;;;;;;;;;;;;;;10.38;54.51;98003.98;1788369;78;24478;-81
2021/10/22 08:57:36;;;;;;;;;;;;;;;10.37;54.36;98011.94;1757359;80;20508;-81
2021/10/22 09:00:03;;;;;;;;;;;;;;;10.43;54.29;98018.02;1765069;80;24770;-81
2021/10/22 09:02:30;;;;;;;;;;;;;;;10.52;54.28;98012.10;1766211;80;21618;-81
2021/10/22 09:04:59;;;;;;;;;;;;;;;10.61;54.29;98011.39;1768496;80;25877;-81
2021/10/22 09:07:27;;;;;;;;;;;;;;;10.67;54.26;98008.77;1761883;80;24516;-81
2021/10/22 09:10:11;;;;;;;;;;;;;;;10.70;54.19;98006.74;1757025;80;20226;-81
2021/10/22 09:12:48;;;;;;;;;;;;;;;10.74;54.12;98016.05;1764537;80;24732;-81
2021/10/22 09:15:16;;;;;;;;;;;;;;;10.74;53.97;98008.67;1769830;80;22643;-81
2021/10/22 09:17:42;;;;;;;;;;;;;;;10.78;53.89;98011.40;1769812;80;25924;-81
2021/10/22 09:20:12;;;;;;;;;;;;;;;10.86;53.88;98007.70;1767071;80;24440;-81
2021/10/22 09:22:38;;;;;;;;;;;;;;;10.91;53.83;98014.23;1818551;77;20168;-81
2021/10/22 09:25:07;;;;;;;;;;;;;;;10.95;53.76;98020.09;1830014;77;24792;-81
2021/10/22 09:27:46;;;;;;;;;;;;;;;11.00;53.72;98021.03;1823181;77;21988;-82
2021/10/22 09:30:33;;;;;;;;;;;;;;;11.04;53.67;98021.14;1831392;77;26123;-81
2021/10/22 09:33:00;;;;;;;;;;;;;;;11.05;53.58;98025.44;1833721;77;24471;-81
2021/10/22 09:35:38;;;;;;;;;;;;;;;11.02;53.41;98021.25;1833258;77;20160;-81
2021/10/22 09:38:12;;;;;;;;;;;;;;;11.04;53.36;98028.53;1823123;77;25361;-81
2021/10/22 09:40:39;;;;;;;;;;;;;;;11.11;53.37;98019.25;1821910;77;22133;-81
2021/10/22 09:43:13;;;;;;;;;;;;;;;11.17;53.34;98018.77;1823547;77;26003;-81
2021/10/22 09:45:39;;;;;;;;;;;;;;;11.19;53.22;98027.31;1820368;77;24449;-81
2021/10/22 09:48:24;;;;;;;;;;;;;;;11.21;53.11;98023.28;1831861;77;20604;-81
2021/10/22 09:50:50;;;;;;;;;;;;;;;11.20;53.03;98014.58;1831213;78;24810;-81
2021/10/22 09:53:23;;;;;;;;;;;;;;;11.18;52.87;98007.81;1788297;79;22059;-81
2021/10/22 09:56:00;;;;;;;;;;;;;;;11.20;52.79;98003.27;1794780;79;26054;-81
2021/10/22 09:58:26;;;;;;;;;;;;;;;11.19;52.65;98012.08;1724920;80;24460;-81
2021/10/22 10:01:06;;;;;;;;;;;;;;;11.22;52.59;98002.21;1751789;81;20434;-81
2021/10/22 10:03:36;;;;;;;;;;;;;;;11.22;52.50;98000.91;1752901;80;24818;-82
2021/10/22 10:06:02;;;;;;;;;;;;;;;11.22;52.39;97999.59;1746649;80;21016;-82
2021/10/22 10:08:28;;;;;;;;;;;;;;;11.22;52.34;98002.21;1758571;79;26835;-81
2021/10/22 10:10:54;;;;;;;;;;;;;;;11.27;52.27;98014.94;1745187;80;24276;-81
2021/10/22 10:13:21;;;;;;;;;;;;;;;11.30;52.26;98004.20;1744249;80;20247;-81
2021/10/22 10:15:47;;;;;;;;;;;;;;;11.28;52.18;97992.56;1772011;78;24838;-82
2021/10/22 10:18:18;;;;;;;;;;;;;;;11.26;52.08;97993.62;1778104;78;20384;-82
2021/10/22 10:20:45;;;;;;;;;;;;;;;11.26;52.05;97988.38;1777980;78;25978;-82
2021/10/22 10:23:11;;;;;;;;;;;;;;;11.23;52.01;97984.71;1782729;78;25184;-81
2021/10/22 10:25:37;;;;;;;;;;;;;;;11.13;51.88;97986.37;1792615;78;20208;-81
2021/10/22 10:28:05;;;;;;;;;;;;;;;11.06;51.82;97993.91;1782996;78;24813;-82
2021/10/22 10:30:35;;;;;;;;;;;;;;;10.99;51.76;97997.95;1761912;78;21930;-82
2021/10/22 10:33:03;;;;;;;;;;;;;;;11.00;51.68;97990.45;1807660;78;26147;-82
2021/10/22 10:35:35;;;;;;;;;;;;;;;11.09;51.65;97988.87;1761809;79;24491;-81
2021/10/22 10:38:01;;;;;;;;;;;;;;;11.19;51.65;97988.50;1768559;80;20402;-82
2021/10/22 10:40:31;;;;;;;;;;;;;;;11.30;51.67;97985.86;1753644;80;24848;-82
2021/10/22 10:42:59;;;;;;;;;;;;;;;11.43;51.71;97986.56;1769656;79;22746;-82
2021/10/22 10:45:28;;;;;;;;;;;;;;;11.53;51.74;97986.17;1798516;79;26031;-82
2021/10/22 10:47:59;;;;;;;;;;;;;;;11.57;51.65;97985.44;1791751;79;24456;-82
2021/10/22 10:50:45;;;;;;;;;;;;;;;11.63;51.57;97986.25;1809222;78;20219;-82
2021/10/22 10:53:12;;;;;;;;;;;;;;;11.70;51.49;97986.11;1806946;78;24219;-82
2021/10/22 10:55:45;;;;;;;;;;;;;;;11.74;51.39;97973.97;1806670;78;22078;-81
2021/10/22 10:58:15;;;;;;;;;;;;;;;11.76;51.26;97958.13;1810675;78;26692;-82
2021/10/22 11:00:52;;;;;;;;;;;;;;;11.80;51.17;97957.38;1812305;78;25341;-82
2021/10/22 11:03:20;;;;;;;;;;;;;;;11.87;51.10;97957.23;1809624;78;20288;-81
2021/10/22 11:05:48;;;;;;;;;;;;;;;11.92;51.06;97942.78;1808470;78;24805;-82
2021/10/22 11:08:16;;;;;;;;;;;;;;;11.96;50.98;97940.25;1805280;78;22122;-81
2021/10/22 11:13:45;;;;;;;;;;;;;;;12.13;50.79;97935.75;1814276;78;25260;-81
2021/10/22 11:16:13;;;;;;;;;;;;;;;12.23;50.71;97925.30;1812041;78;20244;-81
2021/10/22 11:18:39;;;;;;;;;;;;;;;12.27;50.61;97921.95;1802005;78;24878;-81
2021/10/22 11:21:05;;;;;;;;;;;;;;;12.29;50.50;97920.02;1825190;78;22010;-81
2021/10/22 11:23:35;;;;;;;;;;;;;;;12.33;50.42;97920.93;1788220;78;23131;-81
2021/10/22 11:26:01;;;;;;;;;;;;;;;12.38;50.34;97914.00;1812445;78;24415;-81
2021/10/22 11:28:28;;;;;;;;;;;;;;;12.45;50.28;97909.88;1807901;78;20283;-82
2021/10/22 11:30:55;;;;;;;;;;;;;;;12.48;50.10;97913.09;1829548;77;24754;-81
2021/10/22 11:33:21;;;;;;;;;;;;;;;12.55;50.05;97908.95;1793447;79;22057;-81
2021/10/22 11:35:48;;;;;;;;;;;;;;;12.65;50.00;97910.32;1768292;80;26926;-80
2021/10/22 11:38:14;;;;;;;;;;;;;;;12.75;49.94;97901.98;1756419;79;20332;-81
2021/10/22 11:40:40;;;;;;;;;;;;;;;12.83;49.88;97902.61;1743243;79;20292;-81
2021/10/22 11:43:06;;;;;;;;;;;;;;;12.95;49.86;97903.70;1725823;79;24614;-81
2021/10/22 11:45:32;;;;;;;;;;;;;;;13.04;49.73;97893.36;1826803;77;22049;-81
2021/10/22 11:47:58;;;;;;;;;;;;;;;13.09;49.50;97909.03;1830559;77;25987;-81
2021/10/22 11:50:34;;;;;;;;;;;;;;;13.15;49.28;97891.92;1825110;77;20253;-82
2021/10/22 11:53:14;;;;;;;;;;;;;;;13.14;48.87;97898.17;1828525;77;20564;-81
2021/10/22 11:55:51;;;;;;;;;;;;;;;13.22;48.70;97898.30;1829132;77;24748;-81
2021/10/22 11:58:21;;;;;;;;;;;;;;;13.31;48.50;97889.63;1830342;77;22142;-81
2021/10/22 12:00:48;;;;;;;;;;;;;;;13.40;48.30;97889.63;1790306;79;26172;-81
2021/10/22 12:03:14;;;;;;;;;;;;;;;13.51;48.25;97878.13;1746661;79;25264;-81
2021/10/22 12:05:42;;;;;;;;;;;;;;;13.56;48.07;97869.34;1787482;79;20453;-81
2021/10/22 12:08:10;;;;;;;;;;;;;;;13.55;47.77;97857.64;1772159;80;24821;-81
2021/10/22 12:10:38;;;;;;;;;;;;;;;13.51;47.47;97857.11;1803122;78;22043;-81
2021/10/22 12:13:04;;;;;;;;;;;;;;;13.58;47.34;97851.61;1797982;79;26129;-81
2021/10/22 12:15:31;;;;;;;;;;;;;;;13.62;47.23;97839.87;1799688;78;20245;-81
2021/10/22 12:17:59;;;;;;;;;;;;;;;13.73;47.01;97855.48;1786318;79;20265;-81
2021/10/22 12:20:25;;;;;;;;;;;;;;;13.81;46.94;97846.88;1764096;79;25652;-81
2021/10/22 12:22:56;;;;;;;;;;;;;;;13.88;46.83;97822.98;1772537;80;22012;-81
2021/10/22 12:25:22;;;;;;;;;;;;;;;13.74;46.39;97830.86;1768032;80;26061;-82
2021/10/22 12:27:51;;;;;;;;;;;;;;;13.72;45.94;97831.47;1757768;79;24410;-82
2021/10/22 12:30:18;;;;;;;;;;;;;;;13.68;45.67;97824.84;1766777;80;20504;-81
2021/10/22 12:32:48;;;;;;;;;;;;;;;13.62;45.40;97834.61;1830985;77;24834;-82
2021/10/22 12:35:24;;;;;;;;;;;;;;;13.67;45.29;97828.92;1770719;79;22079;-82
2021/10/22 12:38:05;;;;;;;;;;;;;;;13.66;45.16;97824.62;1826981;77;27037;-82
2021/10/22 12:40:33;;;;;;;;;;;;;;;13.62;45.03;97822.78;1836769;77;24402;-81
2021/10/22 12:43:18;;;;;;;;;;;;;;;13.63;44.99;97824.44;1773370;79;20244;-82
2021/10/22 12:45:51;;;;;;;;;;;;;;;13.59;44.85;97827.47;1769878;79;24826;-81
2021/10/22 12:48:19;;;;;;;;;;;;;;;13.56;44.67;97829.08;1758039;79;21984;-81
2021/10/22 12:50:46;;;;;;;;;;;;;;;13.56;44.52;97833.85;1759855;79;26169;-82
2021/10/22 12:53:13;;;;;;;;;;;;;;;13.53;44.23;97828.05;1746106;81;24412;-82
2021/10/22 12:55:41;;;;;;;;;;;;;;;13.43;43.82;97831.98;1749779;81;20598;-82
2021/10/22 12:58:20;;;;;;;;;;;;;;;13.36;43.47;97833.53;1740823;79;24944;-81
2021/10/22 13:01:04;;;;;;;;;;;;;;;13.31;43.27;97844.44;1753045;79;22183;-82